Weather observations for the past three days for
Belen Regional Airport
Imperial (Metric)
Date Time (mdt) Wind (mph) Vis. (mi.) Weather Sky Cond. Temperature (ºF) Relative Humidity Wind Chill (°F) Heat Index (°F) Pressure Precipitation (in)
Air Dwpt 6 hour altimeter (in) sea level (mb) 1 hr 3 hr 6 hr
Max. Min.
09 10:35 N 6 10.00 Fair CLR 77.9 22.1 12% 77 30.06 0.0
09 10:15 S 3 10.00 Fair CLR 74.8 21.9 14% 30.06 0.0
09 09:55 Calm 10.00 Fair CLR 74.3 21.9 14% 30.06 0.0
09 09:35 Calm 10.00 Fair CLR 73 20.1 13% 30.06 0.0
09 09:15 S 3 10.00 Fair CLR 72 19 13% 30.06 0.0
09 08:55 S 3 10.00 Fair CLR 70.2 18.3 14% 30.06 0.0
09 08:35 S 6 10.00 Fair CLR 69.1 18 14% 30.05 0.0
09 08:15 SE 3 10.00 Fair CLR 66.6 17.4 15% 30.05 0.0
09 07:55 Calm 10.00 Fair CLR 64.4 17.1 16% 30.06 0.0
09 07:35 SE 3 10.00 Fair CLR 61.3 16.5 17% 30.05 0.0
09 07:15 E 5 10.00 Fair CLR 56.8 17.2 21% 30.05 0.0
09 06:55 SE 3 10.00 Fair CLR 52.9 17.1 24% 30.04 0.0
09 06:35 Calm 10.00 Fair CLR 50.5 16.2 25% 30.04 0.0
09 06:15 N 8 10.00 Fair CLR 51.8 16.3 24% 30.02 0.0
09 05:55 NW 7 10.00 Fair CLR 50.2 16.3 61 49.1 26% 30.01 0.0
09 05:35 NW 8 10.00 Fair CLR 49.5 15.8 26% 47 30.01 0.0
09 05:15 W 9 10.00 Fair CLR 54 16 22% 30 0.0
09 04:55 W 8 10.00 Fair CLR 54.9 16 21% 30 0.0
09 04:35 W 3 10.00 Fair CLR 52 15.6 24% 30 0.0
09 04:15 Calm 10.00 Fair CLR 52.5 16 23% 29.99 0.0
09 03:55 E 5 10.00 Fair CLR 52.3 15.4 23% 29.99 0.0
09 03:35 NE 3 10.00 Fair CLR 52.7 16 23% 29.99 0.0
09 03:15 Calm 10.00 Fair CLR 54.9 16 21% 29.98 0.0
09 02:55 Calm 10.00 Fair CLR 56.1 14.7 19% 29.98 0.0
09 02:35 Calm 10.00 Fair CLR 55.6 14.4 19% 29.98 0.0
09 02:15 W 3 10.00 Fair CLR 57 14.5 19% 29.98 0.0
09 01:55 W 3 10.00 Fair CLR 58.8 14.4 17% 29.99 0.0
09 01:35 Calm 10.00 Fair CLR 60.3 14.7 17% 29.99 0.0
09 01:15 SW 3 10.00 Fair CLR 59.9 14.2 17% 30 0.0
09 00:55 W 3 10.00 Fair CLR 57.7 13.3 17% 30 0.0
09 00:35 SW 6 10.00 Fair CLR 61 14.4 16% 30 0.0
09 00:15 SW 5 10.00 Fair CLR 59 13.8 17% 30 0.0
08 23:55 SW 7 10.00 Fair CLR 58.5 13.3 84.6 57 17% 30.01 0.0
08 23:35 S 7 10.00 Fair CLR 57.7 12.4 16% 30 0.0
08 23:15 Calm 10.00 Fair CLR 62.1 14.5 16% 30 0.0
08 22:55 N 3 10.00 Fair CLR 63.1 14.4 15% 30 0.0
08 22:35 NE 6 10.00 Fair CLR 63.9 14.5 15% 30 0.0
08 22:15 N 7 10.00 Fair CLR 64 14.4 14% 29.99 0.0
08 21:55 N 7 10.00 Fair CLR 65.8 14.7 14% 29.98 0.0
08 21:35 N 8 10.00 Fair CLR 66.4 14.9 14% 29.98 0.0
08 21:15 N 8 10.00 Fair CLR 68.2 15.4 13% 29.97 0.0
08 20:55 N 8 10.00 Fair CLR 69.8 15.6 12% 29.95 0.0
08 20:35 N 9 10.00 Fair CLR 70.7 15.6 12% 29.95 0.0
08 20:15 N 7 10.00 Fair CLR 72.5 16 11% 29.94 0.0
08 19:55 N 8 10.00 Fair CLR 76.5 16.7 10% 76 29.94 0.0
08 19:35 N 9 10.00 Fair CLR 79.7 16.5 9% 78 29.93 0.0
08 19:15 N 9 10.00 Fair CLR 82 17.1 9% 80 29.93 0.0
08 18:55 N 12 10.00 Fair CLR 83.8 17.4 8% 81 29.93 0.0
08 18:35 NW 8 10.00 Fair CLR 84 18.5 9% 81 29.93 0.0
08 18:15 NW 3 10.00 Fair CLR 83.5 18.9 9% 81 29.93 0.0
08 17:55 NW 5 G 17 10.00 Fair CLR 84.4 18.9 86.5 77.7 9% 81 29.93 0.0
08 17:35 N 7 10.00 Fair CLR 84.6 19.2 9% 82 29.93 0.0
08 17:15 NW 3 G 17 10.00 Fair CLR 84.4 19.2 9% 81 29.93 0.0
08 16:55 N 13 G 16 10.00 Fair CLR 84.9 19.6 9% 82 29.93 0.0
08 16:35 N 10 G 23 10.00 Fair CLR 86 19.4 8% 83 29.94 0.0
08 16:15 N 8 10.00 Fair CLR 85.3 20.1 9% 82 29.95 0.0
08 15:55 N 16 G 21 10.00 Fair CLR 85.6 20.3 9% 82 29.95 0.0
08 15:35 NW 5 G 18 10.00 Fair CLR 84.4 19.6 9% 81 29.95 0.0
08 15:15 N 10 G 18 10.00 Fair CLR 83.7 19.9 9% 81 29.97 0.0
08 14:55 N 13 10.00 Fair CLR 84 20.1 9% 81 29.97 0.0
08 14:35 N 12 G 21 10.00 Fair CLR 83.5 20.5 10% 81 29.99 0.0
08 14:15 NW 8 G 16 10.00 Fair CLR 82.4 20.7 10% 80 30 0.0
08 13:55 NW 9 G 20 10.00 Fair CLR 81.9 20.5 10% 79 30 0.0
08 13:35 N 10 G 21 10.00 Fair CLR 81.7 20.3 10% 79 30.01 0.0
08 13:15 NW 14 G 23 10.00 Fair CLR 81.9 20.7 10% 79 30.01 0.0
08 12:55 N 10 G 20 10.00 Fair CLR 81 20.7 11% 79 30.02 0.0
08 12:35 N 10 G 20 10.00 Fair CLR 79.7 20.3 11% 78 30.03 0.0
08 12:15 NW 5 10.00 Fair CLR 79 20.3 11% 77 30.04 0.0
08 11:55 N 7 10.00 Fair CLR 77.4 20.3 77.5 42.1 12% 76 30.04 0.0
08 11:35 N 6 10.00 Fair CLR 76.8 19.9 12% 76 30.05 0.0
08 11:15 Calm 10.00 Fair CLR 74.1 19.2 12% 30.07 0.0
08 10:55 E 6 10.00 Fair CLR 73.6 18.9 13% 30.07 0.0
08 10:35 NE 6 10.00 Fair CLR 73.2 18.5 12% 30.07 0.0
08 10:15 Calm 10.00 Fair CLR 70.7 17.8 13% 30.08 0.0
08 09:55 Calm 10.00 Fair CLR 70.5 17.6 13% 30.08 0.0
08 09:35 NW 7 10.00 Fair CLR 69.1 16.3 13% 30.08 0.0
08 09:15 NW 8 10.00 Fair CLR 67.5 15.4 13% 30.08 0.0
08 08:55 NW 6 10.00 Fair CLR 64.4 14.7 14% 30.09 0.0
08 08:35 NW 8 10.00 Fair CLR 63 14 15% 30.09 0.0
08 08:15 NW 7 10.00 Fair CLR 62.1 13.6 15% 30.08 0.0
08 07:55 E 3 10.00 Fair CLR 60.6 13.6 16% 30.08 0.0
08 07:35 Calm 10.00 Fair CLR 55.6 12.2 18% 30.08 0.0
08 07:15 Calm 10.00 Fair CLR 51.3 11.3 20% 30.07 0.0
08 06:55 Calm 10.00 Fair CLR 45.5 9.5 23% 30.07 0.0
08 06:35 NE 3 10.00 Fair CLR 42.8 8.6 24% 30.06 0.0
08 06:15 N 3 10.00 Fair CLR 46.2 9.9 23% 30.05 0.0
08 05:55 NW 3 10.00 Fair CLR 47.3 8.8 54.1 41.4 21% 30.04 0.0
08 05:35 Calm 10.00 Fair CLR 45.3 8.1 22% 30.04 0.0
08 05:15 N 3 10.00 Fair CLR 41.4 7.2 24% 30.04 0.0
08 04:55 NW 5 10.00 Fair CLR 42.3 7.5 24% 40 30.04 0.0
08 04:35 N 6 10.00 Fair CLR 43.7 7.3 22% 41 30.04 0.0
08 04:15 N 3 10.00 Fair CLR 45.9 6.8 20% 30.03 0.0
08 03:55 Calm 10.00 Fair CLR 44.6 7.7 22% 30.02 0.0
08 03:35 Calm 10.00 Fair CLR 43.9 6.1 21% 30.02 0.0
08 03:15 NE 3 10.00 Fair CLR 47.5 7.3 19% 30.02 0.0
08 02:55 NW 5 10.00 Fair CLR 43 5.7 21% 41 30.02 0.0
08 02:35 N 3 10.00 Fair CLR 46.2 5.2 18% 30.03 0.0
08 02:15 NW 3 10.00 Fair CLR 45.9 4.6 18% 30.03 0.0
08 01:55 NE 3 10.00 Fair CLR 47.5 4.6 17% 30.03 0.0
08 01:35 SE 3 10.00 Fair CLR 49.6 5.4 16% 30.03 0.0
08 01:15 Calm 10.00 Fair CLR 49.3 5.4 16% 30.03 0.0
08 00:55 Calm 10.00 Fair CLR 51.6 5.9 15% 30.03 0.0
08 00:35 Calm 10.00 Fair CLR 53.8 5.4 14% 30.03 0.0
08 00:15 Calm 10.00 Fair CLR 48.9 4.6 16% 30.03 0.0
07 23:55 NE 3 10.00 Fair CLR 49.8 5 75.7 49.8 16% 30.03 0.0
07 23:35 Calm 10.00 Fair CLR 56.5 5.9 13% 30.03 0.0
07 23:15 Calm 10.00 Fair CLR 52.9 4.5 14% 30.04 0.0
07 22:55 W 6 10.00 Fair CLR 57.7 5.4 12% 30.04 0.0
07 22:35 W 3 10.00 Fair CLR 58.1 5 12% 30.04 0.0
07 22:15 SW 7 10.00 Fair CLR 56.3 4.8 12% 30.04 0.0
07 21:55 S 6 10.00 Fair CLR 60.3 6.4 11% 30.03 0.0
07 21:35 S 5 10.00 Fair CLR 60.3 7.7 12% 30.02 0.0
07 21:15 S 5 10.00 Fair CLR 59.7 7.7 12% 30.02 0.0
07 20:55 S 6 10.00 Fair CLR 60.1 8.6 13% 30.01 0.0
07 20:35 S 7 10.00 Fair CLR 61.9 9.1 12% 30 0.0
07 20:15 S 6 10.00 Fair CLR 63.9 9.1 11% 30 0.0
07 19:55 SE 5 10.00 Fair CLR 69.6 9.5 9% 29.99 0.0
07 19:35 SE 3 10.00 Fair CLR 71.2 9.7 9% 29.98 0.0
07 19:15 E 6 10.00 Fair CLR 72.9 10.4 9% 29.98 0.0
07 18:55 E 7 10.00 Fair CLR 73.8 10.8 9% 29.98 0.0
07 18:35 E 5 10.00 Fair CLR 74.7 10 8% 29.98 0.0
07 18:15 SE 3 10.00 Fair CLR 74.7 9 8% 29.98 0.0
07 17:55 NE 6 10.00 Fair CLR 75.7 10 76.1 63.9 8% 75 29.99 0.0
07 17:35 N 5 10.00 Fair CLR 76.1 7.5 7% 75 29.99 0.0
07 17:15 NE 7 10.00 Fair CLR 75.4 8.1 7% 74 30 0.0
07 16:55 NE 5 10.00 Fair CLR 74.8 8.2 7% 30 0.0
07 16:35 N 3 10.00 Fair CLR 73.8 7.7 8% 30.01 0.0
07 16:15 E 3 10.00 Fair CLR 73.6 10.4 9% 30.02 0.0
07 15:55 NW 3 10.00 Fair CLR 73.4 10.6 9% 30.03 0.0
07 15:35 N 5 10.00 Fair CLR 73.6 10.4 9% 30.04 0.0
07 15:15 W 6 10.00 Fair CLR 72.1 13.1 10% 30.06 0.0
07 14:15 Calm 10.00 Fair CLR 70.9 14 11% 30.08 0.0
07 13:55 N 10 10.00 Fair CLR 69.4 14.5 12% 30.09 0.0
07 13:35 Calm 10.00 Fair CLR 68.9 14.5 12% 30.1 0.0
07 13:15 N 7 10.00 Fair CLR 67.8 16.2 14% 30.12 0.0
07 12:55 NW 6 G 18 10.00 Fair CLR 67.6 16.7 14% 30.12 0.0
07 12:35 N 10 10.00 Fair CLR 66.2 16.2 14% 30.14 0.0
07 12:15 N 5 10.00 NULL NULL 65.7 17.4 15% 30.15 0.0
07 11:55 NE 3 0.00 NULL NULL 63.9 17.8 63.9 36.7 17% 30.15 0.0
07 11:35 W 7 10.00 Fair CLR 63 17.6 17% 30.16 0.0
07 11:15 NW 8 10.00 Fair CLR 63.1 18 17% 30.17 0.0
07 10:55 Calm 10.00 Fair CLR 61.3 22.3 22% 30.18 0.0
07 10:35 NW 6 10.00 Fair CLR 61.5 25.5 25% 30.18 0.0
07 10:15 NW 6 G 9 10.00 Fair CLR 59 26.6 29% 30.19 0.0
07 09:55 NW 8 10.00 Fair CLR 57.4 27.7 32% 30.19 0.0
07 09:35 N 9 G 16 10.00 Fair CLR 56.7 28.4 34% 30.2 0.0
07 09:15 N 10 10.00 Fair CLR 54.7 28.8 37% 30.2 0.0
07 08:55 N 9 10.00 Fair CLR 53.1 29.3 40% 30.21 0.0
07 08:35 N 7 10.00 Fair CLR 51.8 30 43% 30.22 0.0
07 08:15 N 10 10.00 Fair CLR 50.5 29.7 45% 30.21 0.0
07 07:55 N 9 10.00 Fair CLR 48.4 27.3 44% 45 30.21 0.0
07 07:35 N 8 10.00 Fair CLR 46.6 24.1 41% 43 30.2 0.0
07 07:15 N 5 10.00 Fair CLR 44.4 20.3 38% 42 30.2 0.0
07 06:55 NW 6 10.00 Fair CLR 39.2 17.4 41% 36 30.19 0.0
07 06:35 N 6 0.00 NULL NULL 38.5 18 43% 35 30.19 0.0
07 06:15 NE 7 10.00 Fair CLR 38.3 17.2 42% 34 30.19 0.0
07 05:55 NE 7 10.00 Fair CLR 37.6 17.4 50.9 37.2 44% 33 30.18 0.0
07 05:35 NE 7 10.00 Fair CLR 38.5 17.4 42% 34 30.19 0.0
07 05:15 NE 8 10.00 Fair CLR 38.7 16.9 41% 34 30.18 0.0
07 04:55 NE 5 10.00 Fair CLR 41.2 15.8 36% 39 30.19 0.0
07 04:35 NE 3 10.00 Fair CLR 42.4 15.8 34% 30.19 0.0
07 04:15 Calm 10.00 Fair CLR 42.6 17.1 36% 30.18 0.0
07 03:55 N 8 10.00 Fair CLR 45 18 34% 41 30.18 0.0
07 03:35 NW 8 10.00 Fair CLR 45.5 16.9 32% 42 30.17 0.0
07 03:15 NW 8 10.00 Fair CLR 45.3 18.3 34% 42 30.17 0.0
07 02:55 NW 7 10.00 Fair CLR 44.4 18.7 36% 41 30.17 0.0
07 02:35 N 5 10.00 Fair CLR 45.7 18 33% 44 30.17 0.0
07 02:15 NW 7 10.00 Fair CLR 46.4 18.3 33% 43 30.16 0.0
07 01:55 NW 8 10.00 Fair CLR 46.6 19 33% 43 30.17 0.0
07 01:35 NW 7 10.00 Fair CLR 48.2 21.9 35% 46 30.17 0.0
07 01:15 NW 8 10.00 Fair CLR 46.4 23 40% 43 30.17 0.0
07 00:55 NW 8 0.00 NULL NULL 48 23.9 39% 45 30.16 0.0
07 00:35 Calm 0.00 NULL NULL 49.5 24.8 38% 0 0.0
07 00:15 W 6 0.00 NULL NULL 49.8 28.2 43% 48 30.15 0.0
06 23:55 N 8 0.00 NULL NULL 50.5 29.3 70 50.5 44% 30.15 0.0
06 23:15 N 5 0.00 NULL NULL 53.1 29.1 40% 30.14 0.0
06 22:55 N 6 0.00 NULL NULL 54.7 29.3 38% 30.13 0.0
06 22:15 Calm 0.00 NULL NULL 54.7 29.5 38% 30.12 0.0
06 21:55 Calm 0.00 NULL NULL 55.9 29.7 37% 30.11 0.0
06 20:55 N 8 0.00 NULL NULL 58.8 30 34% 30.08 0.0
06 20:35 Calm 0.00 NULL NULL 60.1 30.2 32% 0 0.0
06 19:55 N 17 0.00 NULL NULL 61.5 30.6 31% 30.04 0.0
06 19:35 Calm 0.00 NULL NULL 63 31.1 30% 30.03 0.0
06 18:55 N 15 0.00 NULL NULL 64.9 30.7 28% 30.01 0.0
06 18:35 Calm 0.00 NULL NULL 66.7 27.9 23% 29.99 0.0
06 17:55 N 15 0.00 NULL NULL 70.5 23 17% 29.97 0.0
06 17:35 W 17 0.00 NULL NULL 73.8 19.6 13% 29.96 0.0
06 16:55 W 22 0.00 Breezy NULL 71.6 21.7 15% 29.95 0.0
06 16:35 W 21 0.00 Breezy NULL 72.9 23.5 16% 29.95 0.0
06 15:55 W 12 0.00 NULL NULL 70.7 21.9 16% 29.95 0.0
06 15:35 W 16 0.00 NULL NULL 70.9 21.9 16% 29.95 0.0
06 14:55 W 14 0.00 NULL NULL 70.9 23.2 17% 29.96 0.0
06 14:35 W 12 0.00 NULL NULL 72.1 22.8 16% 29.97 0.0
06 13:55 W 16 10.00 NULL NULL 70.9 23 16% 29.97 0.0
06 13:35 W 10 0.00 NULL NULL 68.5 22.8 18% 29.98 0.0
06 12:55 W 16 G 25 10.00 Partly Cloudy SCT090 69.4 22.3 17% 30 0.0
06 12:35 W 7 10.00 Mostly Cloudy BKN090 67.5 26.1 21% 30 0.0
06 12:15 NW 7 10.00 Mostly Cloudy SCT075 BKN090 65.8 25 21% 30.01 0.0
06 11:55 W 9 10.00 Fair CLR 65.7 26.6 66.7 41 23% 30.01 0.0
06 11:35 W 9 10.00 Fair CLR 66.7 27.5 23% 30.02 0.0
06 11:15 NW 10 G 20 10.00 Fair CLR 65.5 27.1 24% 30.02 0.0
Date Time (mdt) Wind (mph) Vis. (mi.) Weather Sky Cond. Air Dwpt Max. Min. Relative Humidity Wind Chill (°F) Heat Index (°F) altimeter (in) sea level (mb) 1 hr 3 hr 6 hr
6 hour
Temperature (ºF) Pressure Precipitation (in)